Maitland, Missouri
Current Conditions -  °F | °C
As of 5:05 PM on Sunday 21 Dec 2014 (Local Time) from KFNB Reporting Station
Overcast Overcast  
Wind Chill: 36°   Ceiling: 1000
Heat Index: 43°   Visibility: 10mi
Dew Point: 39°   Wind: 13mph
Humidity: 86%   Direction: 160°SSE
Pressure: 29.76"   Gusts: NA
Location:  40.2°N, 95.07°W
Report Text: KFNB 212305Z AUTO 16011KT 10SM OVC010 06/04 A2976 RMK AO2 CIG 007V013 T00610039
Loading
Personal Weather Stations






























Interactive Weather Map New forecast layout! Learn more

10-Day Weather Forecast

Advertisements
Track Severe Weather on mobile